createdAt,value
2022-09-28T00:00:55.507Z,80.12
2022-09-28T00:01:57.792Z,80.55
2022-09-28T00:03:00.210Z,80.50
2022-09-28T00:04:02.699Z,80.68
2022-09-28T00:05:05.369Z,80.00
2022-09-28T00:06:10.510Z,80.11
2022-09-28T00:07:12.791Z,79.63
2022-09-28T00:08:14.959Z,79.76
2022-09-28T00:09:17.794Z,80.17
2022-09-28T00:10:23.567Z,80.46
2022-09-28T00:11:28.206Z,80.49
2022-09-28T00:12:31.529Z,80.62
2022-09-28T00:13:35.201Z,80.86
2022-09-28T00:14:37.437Z,81.14
2022-09-28T00:15:39.799Z,81.19
2022-09-28T00:16:44.153Z,80.86
2022-09-28T00:17:46.313Z,80.59
2022-09-28T00:18:51.039Z,80.63
2022-09-28T00:19:53.245Z,80.67
2022-09-28T00:21:12.274Z,80.59
2022-09-28T00:22:14.428Z,80.50
2022-09-28T00:23:16.840Z,80.53
2022-09-28T00:24:22.931Z,80.64
2022-09-28T00:25:28.081Z,80.63
2022-09-28T00:26:32.950Z,80.58
2022-09-28T00:27:35.216Z,80.45
2022-09-28T00:28:37.790Z,79.71
2022-09-28T00:29:40.005Z,80.16
2022-09-28T00:30:42.305Z,79.99
2022-09-28T00:31:44.609Z,79.90
2022-09-28T00:32:46.827Z,80.46
2022-09-28T00:33:53.596Z,80.68
2022-09-28T00:34:55.833Z,80.64
2022-09-28T00:35:58.763Z,80.62
2022-09-28T00:37:02.651Z,80.40
2022-09-28T00:38:04.815Z,80.51
2022-09-28T00:39:08.544Z,80.61
2022-09-28T00:40:10.744Z,80.55
2022-09-28T00:41:13.503Z,80.26
2022-09-28T00:42:21.429Z,80.19
2022-09-28T00:43:24.605Z,80.24
2022-09-28T00:44:26.710Z,80.27
2022-09-28T00:45:28.981Z,80.32
2022-09-28T00:46:35.194Z,80.42
2022-09-28T00:47:52.363Z,80.47
2022-09-28T00:49:03.082Z,80.67
2022-09-28T00:50:21.087Z,80.46
2022-09-28T00:51:25.773Z,80.42
2022-09-28T00:52:33.658Z,80.34
2022-09-28T00:53:39.277Z,79.93
2022-09-28T00:54:45.910Z,79.80
2022-09-28T00:55:58.857Z,80.16
2022-09-28T00:57:02.935Z,79.95
2022-09-28T00:58:09.000Z,80.07
2022-09-28T00:59:11.323Z,79.95
2022-09-28T01:00:15.916Z,79.82
2022-09-28T01:01:18.444Z,79.92
2022-09-28T01:02:21.712Z,79.78
2022-09-28T01:03:25.486Z,80.00
2022-09-28T01:04:30.176Z,80.10
2022-09-28T01:05:35.759Z,80.46
2022-09-28T01:06:38.901Z,80.40
2022-09-28T01:07:41.446Z,80.47
2022-09-28T01:08:45.861Z,80.71
2022-09-28T01:09:50.523Z,81.06
2022-09-28T01:10:52.998Z,80.98
2022-09-28T01:11:55.536Z,81.06
2022-09-28T01:12:58.816Z,80.96
2022-09-28T01:14:01.450Z,80.77
2022-09-28T01:15:05.537Z,80.23
2022-09-28T01:16:38.363Z,80.25
2022-09-28T01:18:11.578Z,80.30
2022-09-28T01:19:37.872Z,80.62
2022-09-28T01:20:54.080Z,80.43
2022-09-28T01:22:19.160Z,80.51
2022-09-28T01:23:54.826Z,80.37
2022-09-28T01:24:59.451Z,80.38
2022-09-28T01:26:44.560Z,80.27
2022-09-28T01:28:14.330Z,80.37
2022-09-28T01:29:37.234Z,80.51
2022-09-28T01:30:50.995Z,80.60
2022-09-28T01:32:01.399Z,80.44
2022-09-28T01:33:08.455Z,80.27
2022-09-28T01:34:24.135Z,79.96
2022-09-28T01:35:33.498Z,80.52
2022-09-28T01:36:42.365Z,80.67
2022-09-28T01:37:55.707Z,80.42
2022-09-28T01:39:23.420Z,80.18
2022-09-28T01:40:28.722Z,79.95
2022-09-28T01:41:33.429Z,79.76
2022-09-28T01:42:39.680Z,80.03
2022-09-28T01:43:48.359Z,80.07
2022-09-28T01:44:53.371Z,80.17
2022-09-28T01:46:01.887Z,79.74
2022-09-28T01:47:04.910Z,79.95
2022-09-28T01:48:10.002Z,80.16
2022-09-28T01:49:24.032Z,80.09
2022-09-28T01:50:30.709Z,80.17
2022-09-28T01:51:48.028Z,80.35
2022-09-28T01:52:56.321Z,80.23
2022-09-28T01:54:20.169Z,80.25
2022-09-28T01:55:34.297Z,80.30
2022-09-28T01:56:51.466Z,80.21
2022-09-28T01:57:56.387Z,80.47
2022-09-28T01:59:12.419Z,80.73
2022-09-28T02:00:18.227Z,80.84
2022-09-28T02:01:34.094Z,81.11
2022-09-28T02:02:43.368Z,81.13
2022-09-28T02:04:14.250Z,80.93
2022-09-28T02:05:21.409Z,80.82
2022-09-28T02:06:34.246Z,80.61
2022-09-28T02:07:50.020Z,80.58
2022-09-28T02:08:57.370Z,80.62
2022-09-28T02:10:19.559Z,80.40
2022-09-28T02:11:23.158Z,80.57
2022-09-28T02:12:35.078Z,80.75
2022-09-28T02:13:44.726Z,81.05
2022-09-28T02:14:50.181Z,81.32
2022-09-28T02:16:31.526Z,80.64
2022-09-28T02:17:34.059Z,80.69
2022-09-28T02:18:36.656Z,80.58
2022-09-28T02:19:40.010Z,80.60
2022-09-28T02:20:48.264Z,80.47
2022-09-28T02:22:03.361Z,80.43
2022-09-28T02:23:07.655Z,80.49
2022-09-28T02:24:23.360Z,80.33
2022-09-28T02:25:42.947Z,80.19
2022-09-28T02:26:48.217Z,80.29
2022-09-28T02:27:53.075Z,80.09
2022-09-28T02:28:55.516Z,80.22
2022-09-28T02:29:57.760Z,80.41
2022-09-28T02:31:01.009Z,80.38
2022-09-28T02:32:03.463Z,80.63
2022-09-28T02:33:16.681Z,80.45
2022-09-28T02:34:19.314Z,80.31
2022-09-28T02:35:22.469Z,80.79
2022-09-28T02:36:28.992Z,80.68
2022-09-28T02:37:31.500Z,80.67
2022-09-28T02:38:34.464Z,80.74
2022-09-28T02:39:37.438Z,80.88
2022-09-28T02:40:41.841Z,80.60
2022-09-28T02:42:17.177Z,80.82
2022-09-28T02:44:08.470Z,80.40
2022-09-28T02:45:37.326Z,80.48
2022-09-28T02:47:00.469Z,80.46
2022-09-28T02:48:15.538Z,80.20
2022-09-28T02:49:26.498Z,79.56
2022-09-28T02:50:56.350Z,79.63
2022-09-28T02:52:08.797Z,79.81
2022-09-28T02:53:39.322Z,79.77
2022-09-28T02:55:00.261Z,80.17
2022-09-28T02:56:05.263Z,80.55
2022-09-28T02:57:19.694Z,80.70
2022-09-28T02:58:35.576Z,80.70
2022-09-28T02:59:47.604Z,80.63
2022-09-28T03:01:18.295Z,80.98
2022-09-28T03:02:25.880Z,81.11
2022-09-28T03:03:48.477Z,81.03
2022-09-28T03:05:19.842Z,81.11
2022-09-28T03:06:30.953Z,80.98
2022-09-28T03:07:40.453Z,81.09
2022-09-28T03:08:57.994Z,81.23
2022-09-28T03:10:13.751Z,81.38
2022-09-28T03:11:53.084Z,81.79
2022-09-28T03:12:56.629Z,81.94
2022-09-28T03:13:59.795Z,81.90
2022-09-28T03:15:30.196Z,81.84
2022-09-28T03:16:32.764Z,82.20
2022-09-28T03:17:35.000Z,82.39
2022-09-28T03:18:37.570Z,82.43
2022-09-28T03:19:40.070Z,82.51
2022-09-28T03:20:42.475Z,82.69
2022-09-28T03:21:44.947Z,82.72
2022-09-28T03:23:00.497Z,82.48
2022-09-28T03:24:11.117Z,82.31
2022-09-28T03:25:14.225Z,82.26
2022-09-28T03:26:16.832Z,82.53
2022-09-28T03:27:28.440Z,82.79
2022-09-28T03:28:30.865Z,82.99
2022-09-28T03:29:34.424Z,82.99
2022-09-28T03:30:41.654Z,82.88
2022-09-28T03:31:44.440Z,82.97
2022-09-28T03:32:47.304Z,83.04
2022-09-28T03:33:51.524Z,83.07
2022-09-28T03:34:54.367Z,83.16
2022-09-28T03:35:56.824Z,83.02
2022-09-28T03:36:59.351Z,83.01
2022-09-28T03:38:01.544Z,83.05
2022-09-28T03:39:05.991Z,82.83
2022-09-28T03:40:08.722Z,82.97
2022-09-28T03:41:10.897Z,82.86
2022-09-28T03:42:16.148Z,82.89
2022-09-28T03:43:23.638Z,82.66
2022-09-28T03:44:27.537Z,83.25
2022-09-28T03:45:29.727Z,83.16
2022-09-28T03:46:32.154Z,83.40
2022-09-28T03:47:39.959Z,83.26
2022-09-28T03:48:42.398Z,83.26
2022-09-28T03:49:46.309Z,82.93
2022-09-28T03:50:53.296Z,83.12
2022-09-28T03:51:55.471Z,83.26
2022-09-28T03:53:03.664Z,83.64
2022-09-28T03:54:06.273Z,83.64
2022-09-28T03:55:09.041Z,83.73
2022-09-28T03:56:14.580Z,83.85
2022-09-28T03:57:17.476Z,84.03
2022-09-28T03:58:23.532Z,84.04
2022-09-28T03:59:25.737Z,83.85
2022-09-28T04:00:28.247Z,84.05
2022-09-28T04:01:31.133Z,84.27
2022-09-28T04:02:34.902Z,84.38
2022-09-28T04:03:38.478Z,84.33
2022-09-28T04:04:40.767Z,84.50
2022-09-28T04:05:53.428Z,84.42
2022-09-28T04:06:55.648Z,84.47
2022-09-28T04:07:58.007Z,84.30
2022-09-28T04:09:00.332Z,84.32
2022-09-28T04:10:02.516Z,84.18
2022-09-28T04:11:05.149Z,84.03
2022-09-28T04:12:07.345Z,84.08
2022-09-28T04:13:09.690Z,84.16
2022-09-28T04:14:14.127Z,84.22
2022-09-28T04:15:16.894Z,84.24
2022-09-28T04:16:19.390Z,84.25
2022-09-28T04:17:40.235Z,84.27
2022-09-28T04:18:51.203Z,84.25
2022-09-28T04:20:19.402Z,84.45
2022-09-28T04:21:42.808Z,84.73
2022-09-28T04:22:48.453Z,84.81
2022-09-28T04:23:51.665Z,84.72
2022-09-28T04:24:53.913Z,84.75
2022-09-28T04:25:56.087Z,84.39
2022-09-28T04:27:18.177Z,84.82
2022-09-28T04:28:39.187Z,85.03
2022-09-28T04:29:41.848Z,85.03
2022-09-28T04:30:46.820Z,85.45
2022-09-28T04:31:51.295Z,85.34
2022-09-28T04:32:54.765Z,85.48
2022-09-28T04:33:57.747Z,85.80
2022-09-28T04:35:00.509Z,86.22
2022-09-28T04:36:02.857Z,86.48
2022-09-28T04:37:05.635Z,86.43
2022-09-28T04:38:08.067Z,86.41
2022-09-28T04:39:16.427Z,86.45
2022-09-28T04:40:21.956Z,86.33
2022-09-28T04:41:25.235Z,86.63
2022-09-28T04:42:27.374Z,86.81
2022-09-28T04:43:29.886Z,86.80
2022-09-28T04:44:32.366Z,86.70
2022-09-28T04:45:39.989Z,87.21
2022-09-28T04:46:46.071Z,87.02
2022-09-28T04:48:10.755Z,86.85
2022-09-28T04:49:37.050Z,86.68
2022-09-28T04:50:44.881Z,86.67
2022-09-28T04:51:54.389Z,86.06
2022-09-28T04:52:56.688Z,85.98
2022-09-28T04:53:59.377Z,85.84
2022-09-28T04:55:01.548Z,85.69
2022-09-28T04:56:07.009Z,85.51
2022-09-28T04:57:09.986Z,85.38
2022-09-28T04:58:13.312Z,85.33
2022-09-28T04:59:15.734Z,85.37
2022-09-28T05:00:18.617Z,85.37
2022-09-28T05:01:35.079Z,85.29
2022-09-28T05:03:05.939Z,85.14
2022-09-28T05:04:37.514Z,84.59
2022-09-28T05:06:01.081Z,84.75
2022-09-28T05:07:12.669Z,84.82
2022-09-28T05:08:15.321Z,84.97
2022-09-28T05:09:17.786Z,84.72
2022-09-28T05:10:20.191Z,84.64
2022-09-28T05:11:22.942Z,84.66
2022-09-28T05:12:25.245Z,84.67
2022-09-28T05:13:28.846Z,84.82
2022-09-28T05:14:31.054Z,84.60
2022-09-28T05:15:37.718Z,84.43
2022-09-28T05:16:40.380Z,84.61
2022-09-28T05:18:00.986Z,84.66
2022-09-28T05:19:17.344Z,84.46
2022-09-28T05:20:19.836Z,84.46
2022-09-28T05:21:24.804Z,84.21
2022-09-28T05:22:27.082Z,83.91
2022-09-28T05:23:30.559Z,83.68
2022-09-28T05:24:32.963Z,83.49
2022-09-28T05:25:35.460Z,83.21
2022-09-28T05:26:44.889Z,83.67
2022-09-28T05:27:47.396Z,83.45
2022-09-28T05:29:05.890Z,83.48
2022-09-28T05:30:36.894Z,83.16
2022-09-28T05:32:02.607Z,83.18
2022-09-28T05:33:23.194Z,83.33
2022-09-28T05:34:31.966Z,83.20
2022-09-28T05:35:34.198Z,83.08
2022-09-28T05:36:37.058Z,82.76
2022-09-28T05:37:41.172Z,82.77
2022-09-28T05:38:43.696Z,82.57
2022-09-28T05:39:45.924Z,82.71
2022-09-28T05:40:48.199Z,82.67
2022-09-28T05:41:50.525Z,82.71
2022-09-28T05:42:52.909Z,82.47
2022-09-28T05:43:55.271Z,82.49
2022-09-28T05:45:00.349Z,82.57
2022-09-28T05:46:02.790Z,82.28
2022-09-28T05:47:05.287Z,82.29
2022-09-28T05:48:07.531Z,82.29
2022-09-28T05:49:09.739Z,82.39
2022-09-28T05:50:15.687Z,81.97
2022-09-28T05:51:19.366Z,82.01
2022-09-28T05:52:22.244Z,81.59
2022-09-28T05:53:24.731Z,81.96
2022-09-28T05:54:27.192Z,81.59
2022-09-28T05:55:29.828Z,81.12
2022-09-28T05:56:32.323Z,81.00
2022-09-28T05:57:34.663Z,81.24
2022-09-28T05:58:37.449Z,81.28
2022-09-28T05:59:40.250Z,81.42
2022-09-28T06:00:43.049Z,81.04
2022-09-28T06:01:45.632Z,81.56
2022-09-28T06:02:56.339Z,81.81
2022-09-28T06:03:58.529Z,81.49
2022-09-28T06:05:01.762Z,81.70
2022-09-28T06:06:04.290Z,81.87
2022-09-28T06:07:07.253Z,81.62
2022-09-28T06:08:10.660Z,81.68
2022-09-28T06:09:19.360Z,81.99
2022-09-28T06:10:35.506Z,82.16
2022-09-28T06:11:38.343Z,82.09
2022-09-28T06:13:01.512Z,81.80
2022-09-28T06:14:05.076Z,82.31
2022-09-28T06:15:08.514Z,82.01
2022-09-28T06:16:16.508Z,81.24
2022-09-28T06:17:19.116Z,80.89
2022-09-28T06:18:27.482Z,81.14
2022-09-28T06:19:48.426Z,80.77
2022-09-28T06:21:02.930Z,80.68
2022-09-28T06:22:11.012Z,80.93
2022-09-28T06:23:20.787Z,80.47
2022-09-28T06:24:23.282Z,80.27
2022-09-28T06:25:27.689Z,80.00
2022-09-28T06:26:30.275Z,79.54
2022-09-28T06:27:34.196Z,79.60
2022-09-28T06:28:37.117Z,79.97
2022-09-28T06:29:40.997Z,80.06
2022-09-28T06:30:45.217Z,80.02
2022-09-28T06:31:51.605Z,79.53
2022-09-28T06:32:56.292Z,79.40
2022-09-28T06:34:02.197Z,79.15
2022-09-28T06:35:05.008Z,78.77
2022-09-28T06:36:08.531Z,78.60
2022-09-28T06:37:10.791Z,78.63
2022-09-28T06:38:13.160Z,78.64
2022-09-28T06:39:15.440Z,79.16
2022-09-28T06:40:19.261Z,79.43
2022-09-28T06:41:22.460Z,79.07
2022-09-28T06:42:24.680Z,79.17
2022-09-28T06:43:48.215Z,78.51
2022-09-28T06:45:21.827Z,77.82
2022-09-28T06:46:46.625Z,77.71
2022-09-28T06:47:59.713Z,78.36
2022-09-28T06:49:18.649Z,78.15
2022-09-28T06:50:41.324Z,78.17
2022-09-28T06:51:49.054Z,78.25
2022-09-28T06:52:57.215Z,77.42
2022-09-28T06:54:08.121Z,76.86
2022-09-28T06:55:35.275Z,76.65
2022-09-28T06:56:38.474Z,76.59
2022-09-28T06:57:40.697Z,76.26
2022-09-28T06:58:43.023Z,75.45
2022-09-28T06:59:46.851Z,75.03
2022-09-28T07:00:51.893Z,74.82
2022-09-28T07:01:54.727Z,74.55
2022-09-28T07:03:16.436Z,74.04
2022-09-28T07:04:37.204Z,74.39
2022-09-28T07:06:11.527Z,73.99
2022-09-28T07:07:37.150Z,73.32
2022-09-28T07:09:08.503Z,73.02
2022-09-28T07:10:34.726Z,72.72
2022-09-28T07:11:55.733Z,73.20
2022-09-28T07:13:43.565Z,73.11
2022-09-28T07:14:47.714Z,73.33
2022-09-28T07:15:59.462Z,73.25
2022-09-28T07:17:13.033Z,74.57
2022-09-28T07:18:17.903Z,74.68
2022-09-28T07:19:20.320Z,75.22
2022-09-28T07:20:22.686Z,74.95
2022-09-28T07:21:30.287Z,74.43
2022-09-28T07:22:42.831Z,74.65
2022-09-28T07:23:53.757Z,74.22
2022-09-28T07:24:59.429Z,74.20
2022-09-28T07:26:33.178Z,75.00
2022-09-28T07:27:38.326Z,74.86
2022-09-28T07:28:54.272Z,74.98
2022-09-28T07:30:33.439Z,75.04
2022-09-28T07:31:55.860Z,75.12
2022-09-28T07:33:32.804Z,75.04
2022-09-28T07:34:52.483Z,75.29
2022-09-28T07:36:08.927Z,75.11
2022-09-28T07:37:12.460Z,74.93
2022-09-28T07:38:15.208Z,75.39
2022-09-28T07:39:17.542Z,75.46
2022-09-28T07:40:39.013Z,75.21
2022-09-28T07:41:41.459Z,75.38
2022-09-28T07:42:45.618Z,74.92
2022-09-28T07:43:49.783Z,74.46
2022-09-28T07:44:52.367Z,73.68
2022-09-28T07:45:55.735Z,73.02
2022-09-28T07:46:58.919Z,72.58
2022-09-28T07:48:36.773Z,72.23
2022-09-28T07:49:59.139Z,72.78
2022-09-28T07:51:17.912Z,72.44
2022-09-28T07:52:29.992Z,72.49
2022-09-28T07:53:42.188Z,72.74
2022-09-28T07:55:07.165Z,73.18
2022-09-28T07:56:28.412Z,73.19
2022-09-28T07:58:01.804Z,72.73
2022-09-28T07:59:26.791Z,72.23
2022-09-28T08:00:52.314Z,71.66
2022-09-28T08:01:54.620Z,72.39
2022-09-28T08:03:00.245Z,72.76
2022-09-28T08:04:03.232Z,73.27
2022-09-28T08:05:05.944Z,73.68
2022-09-28T08:06:11.235Z,73.65
2022-09-28T08:07:14.251Z,73.41
2022-09-28T08:08:18.516Z,73.90
2022-09-28T08:09:21.147Z,74.13
2022-09-28T08:10:46.961Z,73.80
2022-09-28T08:12:19.672Z,73.45
2022-09-28T08:13:41.331Z,73.25
2022-09-28T08:15:11.411Z,73.13
2022-09-28T08:16:25.562Z,73.39
2022-09-28T08:17:48.768Z,72.66
2022-09-28T08:18:54.183Z,72.09
2022-09-28T08:20:15.113Z,71.98
2022-09-28T08:21:36.312Z,72.43
2022-09-28T08:22:38.945Z,71.97
2022-09-28T08:23:41.746Z,72.33
2022-09-28T08:24:45.017Z,72.80
2022-09-28T08:25:51.089Z,73.45
2022-09-28T08:26:55.578Z,74.66
2022-09-28T08:28:00.095Z,74.43
2022-09-28T08:29:03.899Z,74.83
2022-09-28T08:30:38.544Z,75.38
2022-09-28T08:31:57.268Z,75.96
2022-09-28T08:33:04.223Z,75.10
2022-09-28T08:34:18.895Z,74.61
2022-09-28T08:35:42.094Z,74.56
2022-09-28T08:36:49.024Z,74.83
2022-09-28T08:38:20.231Z,74.44
2022-09-28T08:39:41.409Z,73.79
2022-09-28T08:41:36.930Z,73.41
2022-09-28T08:42:58.011Z,73.22
2022-09-28T08:44:24.092Z,73.19
2022-09-28T08:45:48.135Z,73.69
2022-09-28T08:48:05.819Z,74.36
2022-09-28T08:49:26.264Z,74.06
2022-09-28T08:50:53.491Z,74.59
2022-09-28T08:52:23.605Z,74.75
2022-09-28T08:53:51.531Z,75.70
2022-09-28T08:55:20.406Z,75.43
2022-09-28T08:56:27.803Z,74.41
2022-09-28T08:57:45.254Z,74.10
2022-09-28T08:58:54.794Z,74.13
2022-09-28T08:59:59.823Z,74.16
2022-09-28T09:01:08.924Z,74.79
2022-09-28T09:02:20.303Z,75.21
2022-09-28T09:03:34.189Z,74.77
2022-09-28T09:04:57.758Z,74.87
2022-09-28T09:06:29.743Z,75.44
2022-09-28T09:08:01.370Z,75.02
2022-09-28T09:09:15.648Z,74.96
2022-09-28T09:10:37.426Z,75.05
2022-09-28T09:12:13.314Z,74.88
2022-09-28T09:13:17.489Z,74.29
2022-09-28T09:14:46.587Z,74.46
2022-09-28T09:16:26.047Z,74.72
2022-09-28T09:17:49.570Z,74.91
2022-09-28T09:19:10.735Z,74.89
2022-09-28T09:21:06.169Z,75.63
2022-09-28T09:22:40.873Z,76.04
2022-09-28T09:23:47.456Z,76.20
2022-09-28T09:25:11.704Z,76.25
2022-09-28T09:26:35.276Z,75.34
2022-09-28T09:28:13.292Z,76.28
2022-09-28T09:29:31.559Z,76.80
2022-09-28T09:30:55.231Z,76.29
2022-09-28T09:32:25.679Z,76.41
2022-09-28T09:33:47.491Z,76.57
2022-09-28T09:35:30.663Z,77.18
2022-09-28T09:36:48.490Z,76.29
2022-09-28T09:38:41.026Z,76.46
2022-09-28T09:40:30.481Z,75.69
2022-09-28T09:42:23.590Z,75.14
2022-09-28T09:44:26.793Z,74.05
2022-09-28T09:46:13.954Z,75.04
2022-09-28T09:47:54.326Z,75.20
2022-09-28T09:49:07.870Z,75.09
2022-09-28T09:50:30.038Z,75.21
2022-09-28T09:51:43.923Z,74.85
2022-09-28T09:52:55.887Z,74.32
2022-09-28T09:54:06.304Z,74.38
2022-09-28T09:55:21.747Z,74.70
2022-09-28T09:56:30.627Z,74.42
2022-09-28T09:57:44.067Z,74.38
2022-09-28T09:59:26.247Z,75.21
2022-09-28T10:00:40.612Z,75.98
2022-09-28T10:01:56.495Z,75.90
2022-09-28T10:03:30.223Z,75.65
2022-09-28T10:04:46.708Z,75.33
2022-09-28T10:06:00.552Z,75.48
2022-09-28T10:07:09.787Z,75.06
2022-09-28T10:08:20.134Z,75.01
2022-09-28T10:09:27.877Z,75.34
2022-09-28T10:11:08.382Z,76.20
2022-09-28T10:12:21.754Z,75.94
2022-09-28T10:13:24.041Z,75.85
2022-09-28T10:14:31.060Z,76.77
2022-09-28T10:15:41.300Z,77.61
2022-09-28T10:17:05.068Z,77.92
2022-09-28T10:18:26.508Z,77.61
2022-09-28T10:19:47.289Z,77.47
2022-09-28T10:21:13.230Z,78.10
2022-09-28T10:22:35.190Z,78.68
2022-09-28T10:23:45.227Z,79.30
2022-09-28T10:24:52.449Z,78.66
2022-09-28T10:26:05.405Z,79.41
2022-09-28T10:27:13.701Z,79.51
2022-09-28T10:28:26.028Z,79.24
2022-09-28T10:29:34.799Z,79.20
2022-09-28T10:30:44.386Z,79.45
2022-09-28T10:31:52.103Z,79.80
2022-09-28T10:33:29.421Z,80.03
2022-09-28T10:34:32.095Z,80.07
2022-09-28T10:35:43.062Z,79.60
2022-09-28T10:36:52.261Z,79.72
2022-09-28T10:38:00.133Z,80.02
2022-09-28T10:39:28.979Z,80.26
2022-09-28T10:40:43.532Z,80.88
2022-09-28T10:41:50.527Z,81.01
2022-09-28T10:43:05.171Z,80.89
2022-09-28T10:44:17.492Z,81.13
2022-09-28T10:45:37.148Z,81.03
2022-09-28T10:46:39.474Z,80.71
2022-09-28T10:47:47.493Z,80.44
2022-09-28T10:48:54.479Z,79.67
2022-09-28T10:50:00.873Z,79.79
2022-09-28T10:51:07.507Z,80.49
2022-09-28T10:52:46.607Z,79.18
2022-09-28T10:54:16.578Z,78.89
2022-09-28T10:55:21.696Z,78.75
2022-09-28T10:56:28.654Z,79.14
2022-09-28T10:57:37.571Z,79.39
2022-09-28T10:58:43.017Z,79.27
2022-09-28T10:59:50.027Z,79.50
2022-09-28T11:01:02.380Z,79.44
2022-09-28T11:02:16.973Z,79.29
2022-09-28T11:03:29.879Z,79.83
2022-09-28T11:04:41.639Z,80.08
2022-09-28T11:05:57.754Z,79.97
2022-09-28T11:07:02.230Z,80.01
2022-09-28T11:08:07.688Z,80.42
2022-09-28T11:09:30.778Z,80.42
2022-09-28T11:10:37.271Z,78.83
2022-09-28T11:11:47.759Z,78.52
2022-09-28T11:12:51.328Z,78.65
2022-09-28T11:14:01.646Z,78.96
2022-09-28T11:15:16.818Z,78.08
2022-09-28T11:16:39.332Z,77.60
2022-09-28T11:17:43.745Z,76.97
2022-09-28T11:18:47.257Z,77.48
2022-09-28T11:19:50.238Z,77.29
2022-09-28T11:20:52.537Z,77.58
2022-09-28T11:21:57.294Z,77.49
2022-09-28T11:23:30.077Z,77.34
2022-09-28T11:24:37.592Z,78.06
2022-09-28T11:25:41.182Z,78.61
2022-09-28T11:26:46.450Z,78.36
2022-09-28T11:27:54.228Z,78.37
2022-09-28T11:28:56.741Z,78.15
2022-09-28T11:30:49.924Z,75.66
2022-09-28T11:32:24.349Z,77.79
2022-09-28T11:33:50.011Z,78.60
2022-09-28T11:35:19.845Z,78.32
2022-09-28T11:36:54.461Z,78.73
2022-09-28T11:38:05.035Z,77.47
2022-09-28T11:40:16.212Z,79.42
2022-09-28T11:41:45.815Z,76.82
2022-09-28T11:44:48.902Z,77.11
2022-09-28T11:46:02.185Z,76.93
2022-09-28T11:47:26.361Z,76.84
2022-09-28T11:48:43.089Z,76.23
2022-09-28T11:50:23.539Z,77.19
2022-09-28T11:51:36.326Z,76.03
2022-09-28T11:53:09.755Z,76.70
2022-09-28T11:54:26.154Z,76.56
2022-09-28T11:55:54.604Z,75.82
2022-09-28T11:56:59.858Z,75.36
2022-09-28T11:58:11.700Z,75.49
2022-09-28T11:59:29.379Z,74.82
2022-09-28T12:00:38.190Z,74.47
2022-09-28T12:01:57.364Z,73.47
2022-09-28T12:03:18.521Z,73.25
2022-09-28T12:04:40.875Z,72.90
2022-09-28T12:06:02.867Z,72.00
2022-09-28T12:07:22.317Z,72.13
2022-09-28T12:08:30.183Z,71.88
2022-09-28T12:09:41.458Z,72.40
2022-09-28T12:11:32.447Z,72.08
2022-09-28T12:13:04.605Z,73.05
2022-09-28T12:14:16.116Z,73.12
2022-09-28T12:15:38.176Z,73.25
2022-09-28T12:17:06.229Z,69.87
2022-09-28T12:18:41.352Z,70.57
2022-09-28T12:19:56.742Z,72.26
2022-09-28T12:21:06.367Z,70.91
2022-09-28T12:22:17.286Z,70.87
2022-09-28T12:23:25.942Z,71.71
2022-09-28T12:24:30.599Z,70.73
2022-09-28T12:26:01.089Z,72.03
2022-09-28T12:27:17.466Z,71.96
2022-09-28T12:28:39.787Z,70.99
2022-09-28T12:29:56.149Z,71.79
2022-09-28T12:31:12.046Z,70.64
2022-09-28T12:32:17.012Z,70.38
2022-09-28T12:33:19.222Z,70.25
2022-09-28T12:34:22.661Z,70.17
2022-09-28T12:35:38.771Z,70.51
2022-09-28T12:36:43.969Z,70.45
2022-09-28T12:38:11.191Z,71.41
2022-09-28T12:39:57.058Z,71.12
2022-09-28T12:41:16.658Z,70.90
2022-09-28T12:42:55.392Z,70.78
2022-09-28T12:44:10.288Z,71.45
2022-09-28T12:45:38.463Z,72.03
2022-09-28T12:47:25.804Z,72.75
2022-09-28T12:48:36.186Z,74.57
2022-09-28T12:50:37.687Z,74.02
2022-09-28T12:51:33.032Z,73.01
2022-09-28T12:53:07.384Z,72.53
2022-09-28T12:54:28.246Z,71.91
2022-09-28T12:55:56.251Z,72.90
2022-09-28T12:57:10.523Z,72.69
2022-09-28T12:59:03.691Z,74.19
2022-09-28T13:00:16.060Z,72.65
2022-09-28T13:02:04.728Z,73.16
2022-09-28T13:03:45.708Z,72.45
2022-09-28T13:05:03.347Z,72.87
2022-09-28T13:06:17.349Z,71.91
2022-09-28T13:07:54.041Z,71.51
2022-09-28T13:09:10.035Z,70.97
2022-09-28T13:10:40.503Z,71.17
2022-09-28T13:11:42.685Z,70.90
2022-09-28T13:13:12.488Z,70.45
2022-09-28T13:14:17.687Z,70.05
2022-09-28T13:15:52.507Z,70.63
2022-09-28T13:17:16.024Z,70.32
2022-09-28T13:18:44.283Z,69.63
2022-09-28T13:19:46.518Z,70.97
2022-09-28T13:21:00.584Z,70.46
2022-09-28T13:22:24.384Z,70.44
2022-09-28T13:23:38.691Z,70.08
2022-09-28T13:24:44.378Z,69.37
2022-09-28T13:25:50.944Z,69.19
2022-09-28T13:26:57.789Z,69.99
2022-09-28T13:28:03.934Z,69.28
2022-09-28T13:29:15.928Z,69.57
2022-09-28T13:30:19.308Z,69.09
2022-09-28T13:31:33.165Z,69.34
2022-09-28T13:32:38.919Z,69.30
2022-09-28T13:33:44.394Z,69.38
2022-09-28T13:34:49.833Z,69.51
2022-09-28T13:35:52.152Z,69.16
2022-09-28T13:37:22.167Z,69.42
2022-09-28T13:38:25.374Z,69.11
2022-09-28T13:39:45.872Z,69.93
2022-09-28T13:41:11.486Z,69.77
2022-09-28T13:42:45.096Z,69.29
2022-09-28T13:44:07.500Z,69.54
2022-09-28T13:45:22.023Z,70.02
2022-09-28T13:46:36.272Z,69.83
2022-09-28T13:47:44.654Z,69.77
2022-09-28T13:48:57.369Z,70.04
2022-09-28T13:50:26.947Z,70.30
2022-09-28T13:51:57.148Z,70.44
2022-09-28T13:53:19.116Z,69.67
2022-09-28T13:54:21.224Z,68.72
2022-09-28T13:55:53.917Z,68.22
2022-09-28T13:57:19.707Z,68.09
2022-09-28T13:58:29.666Z,69.01
2022-09-28T13:59:34.426Z,69.15
2022-09-28T14:00:53.643Z,69.33
2022-09-28T14:02:09.493Z,67.93
2022-09-28T14:03:23.436Z,68.50
2022-09-28T14:04:53.244Z,69.88
2022-09-28T14:06:23.293Z,70.48
2022-09-28T14:07:36.295Z,71.29
2022-09-28T14:08:44.762Z,72.15
2022-09-28T14:09:48.593Z,72.89
2022-09-28T14:10:56.163Z,73.71
2022-09-28T14:12:04.264Z,74.29
2022-09-28T14:13:09.197Z,74.84
2022-09-28T14:14:13.639Z,74.11
2022-09-28T14:15:39.461Z,74.53
2022-09-28T14:16:42.777Z,74.91
2022-09-28T14:17:52.685Z,74.71
2022-09-28T14:19:02.374Z,74.02
2022-09-28T14:20:08.215Z,73.61
2022-09-28T14:21:35.112Z,73.26
2022-09-28T14:22:57.793Z,73.38
2022-09-28T14:24:15.524Z,73.47
2022-09-28T14:25:27.604Z,73.45
2022-09-28T14:26:51.356Z,71.86
2022-09-28T14:28:02.231Z,71.95
2022-09-28T14:29:13.238Z,72.46
2022-09-28T14:30:15.241Z,72.59
2022-09-28T14:31:26.415Z,73.31
2022-09-28T14:32:37.187Z,73.42
2022-09-28T14:33:42.642Z,73.69
2022-09-28T14:34:48.013Z,73.47
2022-09-28T14:35:58.292Z,74.10
2022-09-28T14:37:22.272Z,74.73
2022-09-28T14:38:53.897Z,74.27
2022-09-28T14:40:14.785Z,74.05
2022-09-28T14:41:17.921Z,74.48
2022-09-28T14:42:24.094Z,74.55
2022-09-28T14:43:35.300Z,74.37
2022-09-28T14:45:06.398Z,74.59
2022-09-28T14:46:15.684Z,74.68
2022-09-28T14:47:34.278Z,74.84
2022-09-28T14:48:59.106Z,75.11
2022-09-28T14:50:18.268Z,75.26
2022-09-28T14:51:35.449Z,75.00
2022-09-28T14:52:46.470Z,75.47
2022-09-28T14:53:50.845Z,75.95
2022-09-28T14:54:54.671Z,76.41
2022-09-28T14:55:59.947Z,76.57
2022-09-28T14:57:17.578Z,76.74
2022-09-28T14:58:23.731Z,76.83
2022-09-28T14:59:30.348Z,76.62
2022-09-28T15:00:33.004Z,76.94
2022-09-28T15:01:36.338Z,77.22
2022-09-28T15:02:39.508Z,77.11
2022-09-28T15:03:43.556Z,77.14
2022-09-28T15:05:02.661Z,76.73
2022-09-28T15:06:05.021Z,77.22
2022-09-28T15:07:22.094Z,76.89
2022-09-28T15:08:35.931Z,76.61
2022-09-28T15:09:39.274Z,76.82
2022-09-28T15:10:47.282Z,77.19
2022-09-28T15:11:55.445Z,77.30
2022-09-28T15:13:01.288Z,77.19
2022-09-28T15:14:08.246Z,76.46
2022-09-28T15:15:38.511Z,75.89
2022-09-28T15:16:40.676Z,76.05
2022-09-28T15:17:53.353Z,76.04
2022-09-28T15:19:08.970Z,76.35
2022-09-28T15:20:24.105Z,76.55
2022-09-28T15:21:34.491Z,76.63
2022-09-28T15:22:37.904Z,76.74
2022-09-28T15:23:45.456Z,76.90
2022-09-28T15:25:02.429Z,76.98
2022-09-28T15:26:08.560Z,76.79
2022-09-28T15:27:15.982Z,76.80
2022-09-28T15:28:22.121Z,76.77
2022-09-28T15:29:28.126Z,77.04
2022-09-28T15:30:36.380Z,77.44
2022-09-28T15:31:38.653Z,77.44
2022-09-28T15:32:40.867Z,77.63
2022-09-28T15:34:01.883Z,78.13
2022-09-28T15:35:14.458Z,78.69
2022-09-28T15:36:30.018Z,79.26
2022-09-28T15:37:40.308Z,79.29
2022-09-28T15:38:43.201Z,79.16
2022-09-28T15:39:48.084Z,79.44